Time;durP1;ratioP1;P1;durP2;ratioP2;P2;SDS_P1;SDS_P2;PMS_P1;PMS_P2;Temp;Humidity;BMP_temperature;BMP_pressure;BME280_temperature;BME280_humidity;BME280_pressure;Samples;Min_cycle;Max_cycle;Signal;HPM_P1;HPM_P2
2022/11/29 00:01:35;;;;;;;40.05;20.25;;;8.60;99.90;;;;;;5059396;28;20315;-65
2022/11/29 00:04:01;;;;;;;38.25;20.75;;;8.60;99.90;;;;;;5058373;28;20071;-66
2022/11/29 00:06:31;;;;;;;37.97;20.95;;;8.50;99.90;;;;;;5058621;28;20044;-66
2022/11/29 00:09:01;;;;;;;34.63;19.75;;;8.50;99.90;;;;;;5059254;28;20025;-65
2022/11/29 00:14:17;;;;;;;36.75;20.50;;;8.40;99.90;;;;;;5058382;28;20306;-65
2022/11/29 00:16:44;;;;;;;40.83;20.58;;;8.40;99.90;;;;;;5058391;28;20033;-65
2022/11/29 00:19:11;;;;;;;33.03;19.85;;;8.40;99.90;;;;;;5059065;28;20040;-65
2022/11/29 00:21:37;;;;;;;39.28;21.25;;;8.40;99.90;;;;;;5041727;28;20040;-65
2022/11/29 00:24:03;;;;;;;37.67;21.65;;;8.40;99.90;;;;;;5041487;28;20025;-66
2022/11/29 00:26:29;;;;;;;40.83;20.30;;;8.40;99.90;;;;;;5058113;28;20094;-65
2022/11/29 00:28:56;;;;;;;31.02;19.48;;;8.30;99.90;;;;;;5025383;28;20044;-65
2022/11/29 00:31:25;;;;;;;38.88;20.13;;;8.30;99.90;;;;;;5058060;28;20029;-65
2022/11/29 00:33:51;;;;;;;34.83;19.77;;;8.30;99.90;;;;;;5058000;28;20070;-65
2022/11/29 00:36:18;;;;;;;34.53;20.15;;;8.20;99.90;;;;;;5058731;28;20037;-65
2022/11/29 00:38:44;;;;;;;33.95;21.15;;;8.30;99.90;;;;;;5041313;28;20389;-65
2022/11/29 00:41:10;;;;;;;37.05;20.90;;;8.20;99.90;;;;;;5041277;28;20419;-65
2022/11/29 00:43:36;;;;;;;34.80;19.98;;;8.30;99.90;;;;;;5058712;28;20274;-65
2022/11/29 00:46:03;;;;;;;35.83;20.77;;;8.20;99.90;;;;;;5058690;28;20040;-65
2022/11/29 00:48:29;;;;;;;37.83;22.40;;;8.20;99.90;;;;;;5057802;28;20436;-65
2022/11/29 00:50:55;;;;;;;32.83;20.42;;;8.20;99.90;;;;;;5058013;28;20053;-65
2022/11/29 00:53:21;;;;;;;31.98;20.55;;;8.10;99.90;;;;;;5041158;28;20033;-65
2022/11/29 00:55:47;;;;;;;41.05;21.17;;;8.00;99.90;;;;;;5057462;28;20021;-66
2022/11/29 00:58:13;;;;;;;40.15;20.95;;;8.00;99.90;;;;;;5058253;28;20373;-65
2022/11/29 01:00:39;;;;;;;36.30;21.40;;;8.00;99.90;;;;;;5058328;28;20037;-66
2022/11/29 01:03:05;;;;;;;39.38;20.40;;;8.00;99.90;;;;;;5057710;28;20098;-66
2022/11/29 01:05:31;;;;;;;33.63;19.67;;;7.90;99.90;;;;;;5057307;28;20137;-66
2022/11/29 01:07:56;;;;;;;35.45;20.42;;;7.90;99.90;;;;;;5057212;28;20087;-65
2022/11/29 01:10:22;;;;;;;40.20;20.80;;;7.90;99.90;;;;;;5058021;28;20052;-65
2022/11/29 01:12:48;;;;;;;34.90;20.23;;;7.90;99.90;;;;;;5057235;28;20044;-65
2022/11/29 01:15:14;;;;;;;43.40;21.50;;;7.80;99.90;;;;;;5057636;28;20108;-66
2022/11/29 01:17:40;;;;;;;34.25;20.50;;;7.90;99.90;;;;;;5057795;28;20059;-65
2022/11/29 01:20:09;;;;;;;36.38;19.98;;;7.90;99.90;;;;;;5057827;28;20036;-65
2022/11/29 01:22:35;;;;;;;38.33;20.40;;;7.90;99.90;;;;;;5040459;28;20064;-65
2022/11/29 01:25:01;;;;;;;36.33;20.42;;;7.80;99.90;;;;;;5040276;28;20017;-65
2022/11/29 01:27:28;;;;;;;32.95;19.77;;;7.80;99.90;;;;;;5057353;28;20037;-65
2022/11/29 01:29:54;;;;;;;41.97;21.58;;;7.80;99.90;;;;;;5057661;28;20036;-65
2022/11/29 01:32:20;;;;;;;39.70;20.95;;;7.80;99.90;;;;;;5056894;28;20026;-65
2022/11/29 01:34:46;;;;;;;42.10;20.83;;;7.80;99.90;;;;;;5057509;28;20036;-65
2022/11/29 01:37:12;;;;;;;28.27;19.05;;;7.90;99.90;;;;;;5056838;28;20389;-65
2022/11/29 01:39:38;;;;;;;34.80;19.27;;;7.70;99.90;;;;;;5056706;28;20020;-65
2022/11/29 01:42:04;;;;;;;35.38;20.50;;;7.70;99.90;;;;;;5040153;28;20040;-65
2022/11/29 01:44:30;;;;;;;40.20;20.50;;;7.70;99.90;;;;;;5056775;28;20043;-65
2022/11/29 01:46:56;;;;;;;33.55;20.42;;;7.60;99.90;;;;;;5057304;28;20404;-65
2022/11/29 01:49:30;;;;;;;35.13;20.05;;;7.60;99.90;;;;;;5057856;28;20090;-65
2022/11/29 01:52:04;;;;;;;40.30;19.77;;;7.60;99.90;;;;;;5057290;28;20021;-65
2022/11/29 01:54:33;;;;;;;33.20;20.05;;;7.60;99.90;;;;;;5056470;28;20029;-66
2022/11/29 01:57:01;;;;;;;34.42;20.42;;;7.60;99.90;;;;;;5057164;28;20356;-65
2022/11/29 01:59:29;;;;;;;40.00;19.45;;;7.60;99.90;;;;;;5057175;28;20372;-65
2022/11/29 02:02:17;;;;;;;34.47;19.17;;;7.60;99.90;;;;;;5039830;28;20029;-65
2022/11/29 02:04:44;;;;;;;36.80;20.05;;;7.50;99.90;;;;;;5057368;28;20049;-65
2022/11/29 02:07:10;;;;;;;32.05;19.40;;;7.50;99.90;;;;;;5057441;28;20029;-65
2022/11/29 02:09:37;;;;;;;36.20;19.95;;;7.50;99.90;;;;;;5039968;28;20333;-65
2022/11/29 02:12:20;;;;;;;36.78;20.25;;;7.50;99.90;;;;;;5056371;28;20032;-65
2022/11/29 02:15:05;;;;;;;;;;;7.50;99.90;;;;;;5056723;28;20040;-65
2022/11/29 02:18:05;;;;;;;35.83;19.15;;;7.50;99.90;;;;;;5039693;28;19912;-66
2022/11/29 02:21:03;;;;;;;37.15;19.40;;;7.40;99.90;;;;;;5053311;28;20182;-66
2022/11/29 02:24:03;;;;;;;39.88;20.60;;;7.40;99.90;;;;;;5056998;28;20281;-65
2022/11/29 02:26:35;;;;;;;38.40;20.15;;;7.40;99.90;;;;;;5056618;28;20033;-65
2022/11/29 02:29:31;;;;;;;44.43;21.13;;;7.40;99.90;;;;;;5056778;28;20396;-65
2022/11/29 02:32:34;;;;;;;37.65;20.90;;;7.50;99.90;;;;;;5056004;28;20392;-65
2022/11/29 02:35:41;;;;;;;35.92;20.30;;;7.50;99.90;;;;;;5056350;28;20071;-65
2022/11/29 02:38:41;;;;;;;41.30;20.95;;;7.50;99.90;;;;;;5056885;28;20044;-65
2022/11/29 02:41:44;;;;;;;36.35;19.63;;;7.50;99.90;;;;;;5056106;28;20412;-65
2022/11/29 02:44:34;;;;;;;38.40;21.13;;;7.50;99.90;;;;;;5057076;28;20033;-65
2022/11/29 02:47:27;;;;;;;36.60;21.65;;;7.60;99.90;;;;;;5056664;28;20116;-65
2022/11/29 02:50:02;;;;;;;35.97;21.10;;;7.50;99.90;;;;;;5056273;28;20424;-65
2022/11/29 02:52:34;;;;;;;31.88;20.25;;;7.50;99.90;;;;;;5057066;28;20396;-65
2022/11/29 02:55:14;;;;;;;33.08;20.20;;;7.40;99.90;;;;;;5056512;28;20292;-65
2022/11/29 02:57:47;;;;;;;38.85;19.63;;;7.40;99.90;;;;;;5056953;28;20040;-65
2022/11/29 03:00:17;;;;;;;33.42;19.45;;;7.30;99.90;;;;;;5056628;28;20043;-65
2022/11/29 03:02:49;;;;;;;27.73;19.75;;;7.30;99.90;;;;;;5056221;28;20051;-65
2022/11/29 03:05:43;;;;;;;29.60;18.58;;;7.10;99.90;;;;;;5055692;28;20052;-65
2022/11/29 03:08:18;;;;;;;28.65;18.83;;;7.00;99.90;;;;;;5056682;28;20041;-65
2022/11/29 03:11:06;;;;;;;31.48;19.75;;;7.00;99.90;;;;;;5056499;28;20029;-65
2022/11/29 03:13:46;;;;;;;34.78;19.75;;;7.10;99.90;;;;;;5056406;28;20036;-65
2022/11/29 03:16:21;;;;;;;33.25;19.38;;;7.20;99.90;;;;;;5056362;28;20115;-66
2022/11/29 03:18:56;;;;;;;32.25;19.17;;;7.20;99.90;;;;;;5055872;28;20040;-65
2022/11/29 03:21:24;;;;;;;32.05;20.33;;;7.30;99.90;;;;;;5056370;28;20032;-65
2022/11/29 03:23:55;;;;;;;28.65;19.05;;;7.30;99.90;;;;;;5041798;28;20127;-65
2022/11/29 03:26:39;;;;;;;26.63;19.50;;;7.30;99.90;;;;;;5059222;28;20070;-65
2022/11/29 03:29:08;;;;;;;27.00;19.63;;;7.20;99.90;;;;;;5059954;28;20448;-65
2022/11/29 03:32:07;;;;;;;24.90;18.67;;;7.30;99.90;;;;;;5059173;28;20439;-65
2022/11/29 03:35:01;;;;;;;28.25;18.90;;;7.10;99.90;;;;;;5059970;28;20388;-65
2022/11/29 03:37:46;;;;;;;29.35;18.38;;;7.10;99.90;;;;;;5059851;28;20032;-65
2022/11/29 03:40:18;;;;;;;25.50;17.95;;;7.10;99.90;;;;;;5059847;28;20343;-65
2022/11/29 03:43:03;;;;;;;26.98;18.58;;;7.00;99.90;;;;;;5060167;28;20059;-65
2022/11/29 03:45:44;;;;;;;29.20;18.10;;;6.80;99.90;;;;;;5059025;28;20065;-65
2022/11/29 03:48:16;;;;;;;34.95;17.00;;;6.60;99.90;;;;;;5059594;28;20041;-65
2022/11/29 03:50:48;;;;;;;23.70;17.50;;;6.50;99.90;;;;;;5060086;28;20057;-65
2022/11/29 03:53:30;;;;;;;24.25;17.30;;;6.60;99.90;;;;;;5059750;28;20466;-65
2022/11/29 03:56:00;;;;;;;26.40;18.08;;;6.70;99.90;;;;;;5058704;28;20032;-65
2022/11/29 03:58:42;;;;;;;24.50;17.58;;;6.70;99.90;;;;;;5058817;28;20021;-65
2022/11/29 04:01:47;;;;;;;23.27;17.27;;;6.80;99.90;;;;;;5059432;28;20033;-65
2022/11/29 04:04:15;;;;;;;24.27;17.35;;;6.80;99.90;;;;;;5043424;28;20036;-65
2022/11/29 04:07:13;;;;;;;24.45;17.25;;;6.90;99.90;;;;;;5058658;28;20033;-65
2022/11/29 04:09:45;;;;;;;23.33;17.63;;;6.80;99.90;;;;;;5058561;28;20033;-65
2022/11/29 04:12:42;;;;;;;21.57;16.87;;;6.90;99.90;;;;;;5059156;28;20033;-65
2022/11/29 04:15:27;;;;;;;24.10;17.65;;;6.90;99.90;;;;;;5058498;28;20271;-65
2022/11/29 04:18:26;;;;;;;24.95;17.98;;;6.90;99.90;;;;;;5059131;28;20037;-65
2022/11/29 04:21:18;;;;;;;27.20;18.08;;;6.70;99.90;;;;;;5059013;28;20384;-65
2022/11/29 04:23:50;;;;;;;18.45;12.98;;;6.60;99.90;;;;;;5058226;28;20327;-65
2022/11/29 04:26:28;;;;;;;21.33;17.58;;;6.50;99.90;;;;;;5058789;28;20120;-65
2022/11/29 04:29:24;;;;;;;24.85;16.85;;;6.50;99.90;;;;;;5058860;28;20021;-65
2022/11/29 04:32:45;;;;;;;23.30;15.35;;;6.30;99.90;;;;;;5059067;28;20055;-65
2022/11/29 04:35:26;;;;;;;22.98;15.63;;;6.20;99.90;;;;;;5035797;28;20045;-65
2022/11/29 04:38:16;;;;;;;18.58;15.68;;;6.30;99.90;;;;;;5058159;28;20102;-65
2022/11/29 04:41:14;;;;;;;19.73;15.98;;;6.40;99.90;;;;;;5058442;28;20178;-64
2022/11/29 04:44:09;;;;;;;19.92;15.05;;;6.50;99.90;;;;;;5058623;28;20033;-65
2022/11/29 04:47:12;;;;;;;19.20;15.02;;;6.60;99.90;;;;;;5023181;28;20045;-65
2022/11/29 04:49:44;;;;;;;;;;;6.70;99.90;;;;;;5058232;28;20037;-65
2022/11/29 04:52:38;;;;;;;17.33;14.15;;;6.70;99.90;;;;;;5058392;28;19967;-65
2022/11/29 04:55:27;;;;;;;19.40;15.30;;;6.90;99.90;;;;;;5059057;28;20044;-65
2022/11/29 04:58:30;;;;;;;19.58;14.70;;;6.90;99.90;;;;;;5058499;28;20385;-65
2022/11/29 05:01:17;;;;;;;18.17;14.95;;;6.80;99.90;;;;;;5058206;28;20115;-65
2022/11/29 05:04:12;;;;;;;19.95;15.38;;;6.90;99.90;;;;;;5057466;28;20120;-65
2022/11/29 05:06:57;;;;;;;20.45;15.15;;;6.90;99.90;;;;;;5056075;28;20045;-65
2022/11/29 05:09:42;;;;;;;19.27;15.48;;;7.00;99.90;;;;;;5058008;28;20025;-65
2022/11/29 05:12:19;;;;;;;19.33;15.73;;;7.00;99.90;;;;;;5057210;28;20021;-66
2022/11/29 05:15:24;;;;;;;22.05;15.63;;;6.90;99.90;;;;;;5057271;28;20032;-66
2022/11/29 05:18:06;;;;;;;22.95;16.50;;;7.00;99.90;;;;;;5054987;28;20037;-66
2022/11/29 05:20:55;;;;;;;30.40;17.92;;;7.10;99.90;;;;;;5057920;28;20404;-65
2022/11/29 05:24:02;;;;;;;22.40;17.17;;;7.10;99.90;;;;;;5057861;28;20029;-65
2022/11/29 05:26:33;;;;;;;21.30;16.05;;;7.10;99.90;;;;;;5057662;28;20295;-66
2022/11/29 05:29:20;;;;;;;25.35;17.25;;;6.90;99.90;;;;;;5057778;28;20040;-66
2022/11/29 05:32:05;;;;;;;21.77;16.20;;;7.00;99.90;;;;;;5056935;28;20162;-66
2022/11/29 05:35:06;;;;;;;21.52;16.83;;;6.90;99.90;;;;;;5058253;28;20036;-66
2022/11/29 05:37:53;;;;;;;22.13;16.45;;;6.70;99.90;;;;;;5057535;28;20053;-66
2022/11/29 05:40:26;;;;;;;20.98;16.08;;;6.50;99.90;;;;;;5057491;28;20033;-66
2022/11/29 05:43:17;;;;;;;19.48;15.57;;;6.40;99.90;;;;;;5056667;28;20190;-66
2022/11/29 05:45:50;;;;;;;22.15;15.75;;;6.60;99.90;;;;;;5056404;28;20033;-66
2022/11/29 05:48:27;;;;;;;20.42;16.08;;;6.60;99.90;;;;;;5056473;28;20044;-66
2022/11/29 05:51:22;;;;;;;22.63;16.33;;;6.60;99.90;;;;;;5057333;28;20078;-66
2022/11/29 05:53:56;;;;;;;22.35;16.88;;;6.60;99.90;;;;;;5048122;28;20041;-66
2022/11/29 05:56:50;;;;;;;21.27;16.65;;;6.60;99.90;;;;;;5057616;28;20079;-66
2022/11/29 05:59:29;;;;;;;23.17;16.92;;;6.70;99.90;;;;;;5039848;28;20115;-67
2022/11/29 06:02:19;;;;;;;23.70;17.45;;;6.60;99.90;;;;;;5040023;28;20037;-66
2022/11/29 06:05:05;;;;;;;21.40;16.20;;;6.70;99.90;;;;;;5057196;28;20057;-66
2022/11/29 06:07:57;;;;;;;23.48;17.10;;;6.70;99.90;;;;;;5056207;28;20033;-66
2022/11/29 06:10:32;;;;;;;22.67;15.90;;;6.70;99.90;;;;;;5056991;28;20040;-65
2022/11/29 06:13:17;;;;;;;22.27;16.90;;;6.50;99.90;;;;;;5039754;28;20029;-66
2022/11/29 06:15:57;;;;;;;20.90;16.67;;;6.50;99.90;;;;;;5057342;28;20083;-67
2022/11/29 06:18:53;;;;;;;23.13;16.75;;;6.50;99.90;;;;;;5056298;28;20036;-66
2022/11/29 06:21:26;;;;;;;20.95;16.27;;;6.50;99.90;;;;;;5019509;28;20052;-66
2022/11/29 06:24:18;;;;;;;19.70;15.95;;;6.50;99.90;;;;;;5056224;28;20036;-66
2022/11/29 06:27:21;;;;;;;19.15;15.63;;;6.50;99.90;;;;;;5057254;28;20056;-67
2022/11/29 06:30:01;;;;;;;20.73;15.50;;;6.60;99.90;;;;;;5039514;28;20040;-68
2022/11/29 06:32:39;;;;;;;20.02;15.23;;;6.40;99.90;;;;;;5056017;28;20036;-65
2022/11/29 06:35:18;;;;;;;19.23;14.93;;;6.30;99.90;;;;;;5056125;28;20029;-66
2022/11/29 06:37:49;;;;;;;21.80;15.38;;;6.20;99.90;;;;;;5055966;28;20051;-66
2022/11/29 06:40:16;;;;;;;19.05;14.40;;;6.20;99.90;;;;;;5056783;28;20051;-66
2022/11/29 06:42:42;;;;;;;19.40;15.00;;;6.30;99.90;;;;;;5055907;28;20158;-66
2022/11/29 06:45:12;;;;;;;19.42;14.60;;;6.40;99.90;;;;;;5057272;28;20025;-66
2022/11/29 06:47:42;;;;;;;19.17;14.90;;;6.50;99.90;;;;;;5056538;28;20299;-65
2022/11/29 06:50:55;;;;;;;21.45;16.25;;;6.60;99.90;;;;;;5056541;28;20427;-66
2022/11/29 06:53:35;;;;;;;24.45;16.20;;;6.50;99.90;;;;;;5055128;28;20043;-66
2022/11/29 06:56:30;;;;;;;24.63;16.27;;;6.50;99.90;;;;;;5056619;28;20025;-66
2022/11/29 06:59:20;;;;;;;21.52;15.88;;;6.60;99.90;;;;;;5058857;28;20341;-66
2022/11/29 07:02:16;;;;;;;26.00;15.40;;;6.70;99.90;;;;;;5060489;28;20021;-66
2022/11/29 07:05:00;;;;;;;23.05;16.10;;;6.70;99.90;;;;;;5060646;28;20045;-66
2022/11/29 07:07:26;;;;;;;23.40;15.07;;;6.70;99.90;;;;;;5060334;28;20059;-67
2022/11/29 07:09:56;;;;;;;21.63;16.23;;;6.80;99.90;;;;;;5060720;28;20040;-67
2022/11/29 07:12:23;;;;;;;22.90;16.13;;;6.90;99.90;;;;;;5059684;28;20039;-66
2022/11/29 07:14:49;;;;;;;28.63;16.08;;;7.00;99.90;;;;;;5059514;28;20037;-65
2022/11/29 07:17:21;;;;;;;24.23;15.70;;;7.00;99.90;;;;;;5059419;28;20312;-64
2022/11/29 07:20:09;;;;;;;21.25;15.02;;;7.00;99.90;;;;;;5042818;28;20380;-65
2022/11/29 07:22:52;;;;;;;24.23;16.63;;;7.00;99.90;;;;;;5060178;28;20036;-65
2022/11/29 07:25:21;;;;;;;20.05;14.85;;;7.00;99.90;;;;;;5042704;28;20040;-66
2022/11/29 07:28:12;;;;;;;13.45;10.95;;;7.00;99.90;;;;;;5059066;28;20036;-63
2022/11/29 07:30:49;;;;;;;29.25;16.55;;;7.80;99.90;;;;;;5059922;28;20025;-65
2022/11/29 07:33:27;;;;;;;22.52;15.55;;;7.70;99.90;;;;;;5058984;28;20091;-64
2022/11/29 07:36:16;;;;;;;22.20;15.10;;;7.40;99.90;;;;;;5059217;28;20056;-63
2022/11/29 07:39:00;;;;;;;24.63;15.65;;;7.30;99.90;;;;;;5058748;28;20029;-65
2022/11/29 07:41:29;;;;;;;20.77;15.40;;;7.10;99.90;;;;;;5058830;28;20035;-65
2022/11/29 07:44:09;;;;;;;23.25;15.98;;;6.90;99.90;;;;;;5059605;28;20090;-63
2022/11/29 07:46:34;;;;;;;24.52;15.52;;;6.80;99.90;;;;;;5042170;28;20052;-65
2022/11/29 07:49:00;;;;;;;22.33;15.88;;;7.20;99.90;;;;;;5058788;28;20037;-65
2022/11/29 07:51:26;;;;;;;21.95;16.13;;;7.20;99.90;;;;;;5058837;28;20423;-64
2022/11/29 07:53:52;;;;;;;27.23;16.92;;;7.10;99.90;;;;;;5042073;28;20040;-67
2022/11/29 07:56:18;;;;;;;23.25;16.33;;;7.10;99.90;;;;;;5058839;28;20328;-66
2022/11/29 07:58:44;;;;;;;28.30;17.13;;;7.10;99.90;;;;;;5059319;28;20043;-66
2022/11/29 08:01:10;;;;;;;27.42;16.40;;;7.00;99.90;;;;;;5058560;28;20024;-65
2022/11/29 08:03:36;;;;;;;26.45;17.02;;;6.90;99.90;;;;;;5059205;28;20033;-65
2022/11/29 08:06:02;;;;;;;29.83;17.00;;;7.00;99.90;;;;;;5058959;28;20049;-64
2022/11/29 08:08:30;;;;;;;32.92;17.13;;;7.00;99.90;;;;;;5058970;28;20065;-65
2022/11/29 08:10:56;;;;;;;32.88;17.75;;;7.10;99.90;;;;;;5057858;28;20075;-65
2022/11/29 08:13:22;;;;;;;30.00;18.80;;;7.20;99.90;;;;;;5041788;28;20380;-65
2022/11/29 08:15:48;;;;;;;35.17;17.70;;;7.20;99.90;;;;;;5059181;28;20327;-66
2022/11/29 08:18:14;;;;;;;31.50;19.55;;;7.30;99.90;;;;;;5059036;28;20029;-65
2022/11/29 08:20:41;;;;;;;32.65;18.38;;;7.20;99.90;;;;;;5059582;28;20488;-66
2022/11/29 08:23:09;;;;;;;31.13;18.73;;;7.20;99.90;;;;;;5058295;28;20078;-65
2022/11/29 08:25:35;;;;;;;28.83;18.23;;;7.20;99.90;;;;;;5058176;28;20119;-65
2022/11/29 08:28:02;;;;;;;32.53;18.67;;;7.20;99.90;;;;;;5057923;28;20405;-65
2022/11/29 08:30:28;;;;;;;35.13;19.73;;;7.30;99.90;;;;;;5042080;28;20131;-64
2022/11/29 08:32:54;;;;;;;35.72;19.08;;;7.50;99.90;;;;;;5058019;28;20112;-65
2022/11/29 08:35:21;;;;;;;35.00;19.02;;;7.60;99.90;;;;;;5058051;28;20392;-65
2022/11/29 08:37:48;;;;;;;34.88;20.05;;;7.50;99.90;;;;;;5058636;28;20041;-66
2022/11/29 08:40:15;;;;;;;32.28;19.25;;;7.50;99.90;;;;;;5041393;28;20021;-66
2022/11/29 08:42:41;;;;;;;38.03;19.42;;;7.40;99.90;;;;;;5057669;28;20308;-66
2022/11/29 08:45:08;;;;;;;39.30;20.33;;;7.40;99.90;;;;;;5057752;28;20119;-66
2022/11/29 08:47:35;;;;;;;37.30;20.98;;;7.40;99.90;;;;;;5057593;28;20052;-66
2022/11/29 08:50:03;;;;;;;41.03;21.17;;;7.40;99.90;;;;;;5058570;28;20171;-66
2022/11/29 08:55:20;;;;;;;47.47;22.08;;;7.40;99.90;;;;;;5058499;28;20104;-66
2022/11/29 08:57:48;;;;;;;39.75;22.23;;;7.30;99.90;;;;;;5057459;28;20037;-66
2022/11/29 09:00:14;;;;;;;43.50;22.67;;;7.40;99.90;;;;;;5058115;28;20037;-66
2022/11/29 09:02:40;;;;;;;39.63;21.83;;;7.60;99.90;;;;;;5058274;28;20064;-66
2022/11/29 09:05:08;;;;;;;48.33;22.70;;;7.70;99.90;;;;;;5057254;28;20076;-66
2022/11/29 09:07:34;;;;;;;37.30;21.13;;;7.60;99.90;;;;;;5058013;28;20086;-66
2022/11/29 09:10:04;;;;;;;51.90;20.80;;;7.60;99.90;;;;;;5058058;28;20384;-66
2022/11/29 09:12:34;;;;;;;37.05;20.67;;;7.80;99.90;;;;;;5058011;28;20037;-66
2022/11/29 09:15:01;;;;;;;32.42;19.40;;;7.90;99.90;;;;;;5024458;28;20392;-66
2022/11/29 09:17:27;;;;;;;41.08;19.88;;;7.70;99.90;;;;;;5057552;28;20063;-66
2022/11/29 09:19:52;;;;;;;31.73;18.85;;;7.40;99.90;;;;;;5040481;28;20072;-66
2022/11/29 09:22:18;;;;;;;27.23;15.60;;;7.60;99.90;;;;;;5056825;28;20045;-66
2022/11/29 09:24:45;;;;;;;36.72;20.38;;;8.00;99.90;;;;;;5057115;28;20041;-66
2022/11/29 09:27:11;;;;;;;32.75;19.73;;;8.30;99.90;;;;;;5056883;28;20354;-66
2022/11/29 09:29:37;;;;;;;38.47;20.77;;;8.50;99.90;;;;;;5023917;28;20033;-66
2022/11/29 09:32:03;;;;;;;35.28;20.52;;;8.30;99.90;;;;;;5057466;28;20048;-66
2022/11/29 09:34:29;;;;;;;37.10;20.23;;;8.10;99.90;;;;;;5056775;28;20032;-66
2022/11/29 09:36:55;;;;;;;34.45;19.48;;;8.20;99.90;;;;;;5023805;28;20309;-66
2022/11/29 09:39:21;;;;;;;38.03;19.00;;;8.30;99.90;;;;;;5056804;28;20041;-65
2022/11/29 09:41:52;;;;;;;35.25;19.77;;;8.40;99.90;;;;;;5057457;28;20052;-66
2022/11/29 09:44:33;;;;;;;32.42;19.77;;;8.40;99.90;;;;;;5057488;28;20288;-66
2022/11/29 09:47:43;;;;;;;34.05;20.70;;;8.50;99.90;;;;;;5057339;28;20139;-66
2022/11/29 09:50:30;;;;;;;33.58;21.02;;;8.70;99.90;;;;;;5052181;28;20051;-66
2022/11/29 09:53:26;;;;;;;33.72;20.67;;;8.40;99.90;;;;;;5039859;28;20127;-65
2022/11/29 09:56:04;;;;;;;35.63;20.35;;;8.40;99.90;;;;;;5056474;28;20135;-66
2022/11/29 09:58:43;;;;;;;41.03;22.38;;;8.40;99.90;;;;;;5057064;28;20033;-65
2022/11/29 10:01:19;;;;;;;38.38;21.65;;;8.20;99.90;;;;;;5057370;28;20041;-65
2022/11/29 10:03:51;;;;;;;37.45;20.75;;;7.90;99.90;;;;;;5056171;28;20029;-65
2022/11/29 10:06:26;;;;;;;35.72;21.73;;;7.60;99.90;;;;;;5056118;28;20102;-65
2022/11/29 10:09:21;;;;;;;35.92;20.33;;;7.70;99.90;;;;;;5056972;28;20115;-65
2022/11/29 10:11:53;;;;;;;28.13;18.08;;;7.60;99.90;;;;;;5039602;28;20025;-66
2022/11/29 10:14:25;;;;;;;31.45;19.40;;;7.90;99.90;;;;;;5056970;28;20401;-66
2022/11/29 10:17:10;;;;;;;31.73;19.83;;;8.10;99.90;;;;;;5056254;28;20040;-66
2022/11/29 10:19:43;;;;;;;30.23;19.75;;;8.20;99.90;;;;;;5057392;28;20037;-65
2022/11/29 10:22:09;;;;;;;;;;;8.00;99.90;;;;;;5056617;28;20036;-65
2022/11/29 10:24:36;;;;;;;29.13;19.13;;;7.90;99.90;;;;;;5056156;28;19918;-66
2022/11/29 10:27:14;;;;;;;32.03;19.55;;;8.00;99.90;;;;;;5056161;28;20106;-65
2022/11/29 10:29:40;;;;;;;32.47;20.13;;;8.30;99.90;;;;;;5057023;28;20319;-65
2022/11/29 10:32:12;;;;;;;33.08;19.77;;;8.30;99.90;;;;;;5038833;28;20116;-66
2022/11/29 10:34:39;;;;;;;30.13;19.63;;;8.30;99.90;;;;;;5056133;28;20040;-65
2022/11/29 10:37:13;;;;;;;31.45;20.98;;;8.70;99.90;;;;;;5056906;28;20396;-65
2022/11/29 10:39:51;;;;;;;28.65;18.50;;;8.80;99.90;;;;;;5056922;28;20419;-65
2022/11/29 10:45:18;;;;;;;29.23;18.33;;;9.00;99.90;;;;;;5056776;28;20371;-66
2022/11/29 10:47:46;;;;;;;29.02;18.25;;;8.60;99.90;;;;;;5056692;28;20366;-66
2022/11/29 10:50:33;;;;;;;31.88;19.33;;;8.70;99.90;;;;;;5055903;28;20064;-66
2022/11/29 10:53:13;;;;;;;28.05;19.42;;;8.50;99.90;;;;;;5055747;28;20411;-66
2022/11/29 10:56:01;;;;;;;27.52;19.23;;;8.70;99.90;;;;;;5055982;28;20330;-66
2022/11/29 10:58:30;;;;;;;28.88;19.00;;;8.90;99.90;;;;;;5056777;28;20021;-65
2022/11/29 11:01:07;;;;;;;29.85;17.38;;;9.40;99.90;;;;;;5055627;28;20116;-66
2022/11/29 11:03:57;;;;;;;28.05;18.60;;;9.20;99.90;;;;;;5055814;28;20113;-65
2022/11/29 11:06:27;;;;;;;27.92;17.65;;;9.40;99.90;;;;;;5055687;28;20347;-66
2022/11/29 11:09:18;;;;;;;32.55;19.75;;;9.60;99.90;;;;;;5056662;28;20048;-66
2022/11/29 11:11:56;;;;;;;29.67;19.42;;;9.60;99.90;;;;;;5056668;28;20277;-65
2022/11/29 11:14:27;;;;;;;29.48;20.30;;;9.80;99.90;;;;;;5056511;28;20030;-65
2022/11/29 11:16:54;;;;;;;29.02;20.45;;;9.60;99.90;;;;;;5056452;28;20063;-66
2022/11/29 11:19:31;;;;;;;34.03;20.85;;;9.60;99.90;;;;;;5056417;28;20325;-66
2022/11/29 11:22:02;;;;;;;27.90;20.88;;;9.60;99.90;;;;;;5055717;28;20128;-66
2022/11/29 11:24:31;;;;;;;30.27;20.15;;;9.80;99.90;;;;;;5056372;28;20021;-67
2022/11/29 11:26:58;;;;;;;27.50;18.70;;;9.70;99.90;;;;;;5055378;28;20384;-66
2022/11/29 11:29:44;;;;;;;24.25;17.15;;;9.60;99.90;;;;;;5022455;28;20407;-67
2022/11/29 11:32:18;;;;;;;26.90;16.50;;;9.40;99.90;;;;;;5056593;28;20037;-67
2022/11/29 11:34:53;;;;;;;21.48;16.02;;;9.50;99.90;;;;;;5056260;28;20028;-67
2022/11/29 11:37:32;;;;;;;24.85;15.95;;;9.70;99.90;;;;;;5056135;28;20339;-66
2022/11/29 11:40:00;;;;;;;24.95;16.15;;;9.90;99.90;;;;;;5056102;28;20049;-66
2022/11/29 11:42:36;;;;;;;26.17;15.38;;;10.00;99.90;;;;;;5038613;28;20029;-67
2022/11/29 11:45:10;;;;;;;22.38;15.82;;;10.20;99.90;;;;;;5058058;28;20032;-66
2022/11/29 11:47:41;;;;;;;22.98;16.25;;;10.50;99.90;;;;;;5059711;28;20048;-67
2022/11/29 11:50:36;;;;;;;20.50;15.70;;;10.60;99.90;;;;;;5042417;28;20067;-66
2022/11/29 11:53:17;;;;;;;18.77;15.80;;;10.20;99.90;;;;;;5058983;28;20024;-66
2022/11/29 11:55:57;;;;;;;19.10;14.63;;;9.90;99.90;;;;;;5058729;28;20033;-67
2022/11/29 11:58:28;;;;;;;21.85;15.80;;;9.90;99.90;;;;;;5059494;28;20321;-66
2022/11/29 12:00:55;;;;;;;24.42;16.48;;;9.90;99.90;;;;;;5058554;28;20028;-66
2022/11/29 12:03:47;;;;;;;25.85;17.17;;;9.80;99.90;;;;;;5058462;28;20071;-65
2022/11/29 12:06:24;;;;;;;25.55;17.75;;;9.50;99.90;;;;;;5059153;28;20044;-65
2022/11/29 12:08:54;;;;;;;26.27;16.50;;;9.70;99.90;;;;;;5059265;28;20296;-65
2022/11/29 12:11:22;;;;;;;26.40;18.17;;;9.70;99.90;;;;;;5059081;28;20403;-66
2022/11/29 12:13:56;;;;;;;22.40;17.63;;;9.80;99.90;;;;;;5041854;28;20016;-66
2022/11/29 12:16:29;;;;;;;27.63;17.80;;;9.80;99.90;;;;;;5058417;28;20075;-66
2022/11/29 12:19:01;;;;;;;;;;;9.90;99.90;;;;;;5058927;28;20029;-66
2022/11/29 12:21:31;;;;;;;;;;;9.90;99.90;;;;;;5058729;28;20023;-65
2022/11/29 12:24:18;;;;;;;22.70;16.73;;;9.90;99.90;;;;;;5058227;28;19909;-66
2022/11/29 12:26:44;;;;;;;24.77;16.90;;;10.10;99.90;;;;;;5058934;28;20029;-66
2022/11/29 12:29:16;;;;;;;24.75;16.73;;;10.30;99.90;;;;;;5041595;28;20426;-67
2022/11/29 12:32:23;;;;;;;22.55;16.55;;;10.70;99.90;;;;;;5058604;28;20025;-68
2022/11/29 12:35:13;;;;;;;22.80;15.77;;;11.20;99.90;;;;;;5052157;28;20426;-66
2022/11/29 12:37:52;;;;;;;20.15;15.38;;;11.00;99.90;;;;;;5058877;28;20037;-67
2022/11/29 12:40:21;;;;;;;23.60;16.45;;;11.20;99.90;;;;;;5058824;28;20029;-70
2022/11/29 12:42:55;;;;;;;23.77;16.15;;;11.50;99.90;;;;;;5057921;28;20033;-71
2022/11/29 12:45:38;;;;;;;22.67;16.50;;;11.60;99.90;;;;;;5058887;28;20426;-69
2022/11/29 12:48:20;;;;;;;24.80;16.40;;;11.80;99.90;;;;;;5059001;28;20033;-68
2022/11/29 12:50:52;;;;;;;24.00;17.15;;;11.80;99.90;;;;;;5057828;28;20025;-65
2022/11/29 12:53:33;;;;;;;25.85;18.50;;;11.60;99.90;;;;;;5057780;28;20104;-68
2022/11/29 12:56:09;;;;;;;26.33;19.00;;;11.20;99.90;;;;;;5040688;28;20024;-69
2022/11/29 12:58:43;;;;;;;31.92;18.70;;;10.80;99.90;;;;;;5058385;28;20035;-66
2022/11/29 13:01:21;;;;;;;30.73;18.02;;;10.70;99.90;;;;;;5058818;28;20028;-68
2022/11/29 13:04:01;;;;;;;28.40;19.00;;;10.50;99.90;;;;;;5057883;28;20300;-71
2022/11/29 13:06:51;;;;;;;29.35;18.55;;;10.40;99.90;;;;;;5057869;28;20346;-70
2022/11/29 13:09:31;;;;;;;36.67;20.80;;;10.30;99.90;;;;;;5058671;28;20104;-72
2022/11/29 13:12:01;;;;;;;34.75;20.23;;;10.60;99.90;;;;;;5057943;28;20028;-70
2022/11/29 13:14:39;;;;;;;33.70;19.85;;;10.60;99.90;;;;;;5057500;28;20115;-69
2022/11/29 13:17:15;;;;;;;31.83;20.40;;;10.60;99.90;;;;;;5057388;28;20051;-70
2022/11/29 13:19:52;;;;;;;32.50;20.08;;;10.30;99.90;;;;;;5057308;28;20044;-68
2022/11/29 13:22:24;;;;;;;31.92;19.65;;;9.80;99.90;;;;;;5057918;28;20051;-68
2022/11/29 13:24:55;;;;;;;32.30;20.25;;;9.60;99.90;;;;;;5057941;28;20029;-68
2022/11/29 13:27:27;;;;;;;32.85;20.98;;;9.70;99.90;;;;;;5057121;28;20278;-68
2022/11/29 13:29:54;;;;;;;33.33;22.23;;;9.40;99.90;;;;;;5057737;28;20025;-70
2022/11/29 13:32:45;;;;;;;35.65;21.77;;;9.40;99.90;;;;;;5040472;28;20039;-70
2022/11/29 13:35:13;;;;;;;36.63;22.27;;;9.60;99.90;;;;;;5057725;28;20036;-69